Time;durP1;ratioP1;P1;durP2;ratioP2;P2;SDS_P1;SDS_P2;PMS_P1;PMS_P2;Temp;Humidity;BMP_temperature;BMP_pressure;BME280_temperature;BME280_humidity;BME280_pressure;Samples;Min_cycle;Max_cycle;Signal;HPM_P1;HPM_P2
2022/01/19 00:00:14;;;;;;;;;83.00;64.00;;;;;1.62;78.94;100851.91;5107791;27;45479;-77
2022/01/19 00:02:39;;;;;;;;;79.25;59.50;;;;;1.59;79.01;100847.53;5100383;27;45480;-76
2022/01/19 00:05:07;;;;;;;;;81.00;60.50;;;;;1.59;79.23;100841.44;5105141;27;45331;-77
2022/01/19 00:07:33;;;;;;;;;76.75;60.00;;;;;1.56;78.99;100834.44;5095196;27;45434;-77
2022/01/19 00:10:03;;;;;;;;;77.25;60.75;;;;;1.54;79.12;100830.94;5114815;27;45404;-77
2022/01/19 00:12:32;;;;;;;;;76.25;59.75;;;;;1.52;79.07;100839.53;5096503;27;47405;-76
2022/01/19 00:14:58;;;;;;;;;75.75;59.00;;;;;1.52;78.97;100842.13;5085945;27;45491;-77
2022/01/19 00:17:24;;;;;;;;;83.50;63.00;;;;;1.49;79.11;100861.16;5095130;27;45427;-77
2022/01/19 00:19:49;;;;;;;;;82.00;60.50;;;;;1.47;79.24;100864.53;5114845;27;45395;-77
2022/01/19 00:22:14;;;;;;;;;76.50;60.75;;;;;1.44;79.65;100870.53;5101811;27;46361;-77
2022/01/19 00:24:41;;;;;;;;;73.25;58.25;;;;;1.42;79.63;100864.44;5088280;27;45507;-77
2022/01/19 00:27:07;;;;;;;;;74.25;59.50;;;;;1.42;79.52;100867.03;5102805;27;45411;-77
2022/01/19 00:29:32;;;;;;;;;84.75;63.50;;;;;1.40;79.76;100881.69;5108205;27;45327;-76
2022/01/19 00:31:58;;;;;;;;;83.00;62.50;;;;;1.40;79.41;100879.97;5109793;27;45412;-77
2022/01/19 00:34:23;;;;;;;;;83.50;65.00;;;;;1.39;79.75;100878.22;5107280;27;45516;-77
2022/01/19 00:36:49;;;;;;;;;76.75;54.50;;;;;1.37;79.84;100869.50;5085562;27;45407;-77
2022/01/19 00:39:14;;;;;;;;;74.00;59.25;;;;;1.36;79.60;100864.25;5092696;27;45507;-76
2022/01/19 00:41:39;;;;;;;;;80.00;61.00;;;;;1.35;79.87;100860.78;5103261;27;46594;-76
2022/01/19 00:44:05;;;;;;;;;76.25;59.75;;;;;1.35;79.95;100863.38;5108075;27;45432;-77
2022/01/19 00:46:30;;;;;;;;;79.50;59.50;;;;;1.35;79.69;100865.09;5099567;27;45419;-77
2022/01/19 00:48:56;;;;;;;;;76.75;57.25;;;;;1.34;80.06;100850.38;5107153;27;45447;-76
2022/01/19 00:51:21;;;;;;;;;77.50;58.25;;;;;1.32;80.06;100855.53;5091305;27;47415;-77
2022/01/19 00:53:46;;;;;;;;;78.00;59.00;;;;;1.31;79.97;100850.31;5099519;27;45419;-76
2022/01/19 00:56:12;;;;;;;;;78.75;61.50;;;;;1.31;80.15;100842.50;5096607;27;45437;-76
2022/01/19 00:58:37;;;;;;;;;77.25;59.75;;;;;1.32;80.07;100846.88;5099311;27;45379;-77
2022/01/19 01:01:03;;;;;;;;;80.25;60.50;;;;;1.31;80.09;100830.41;5103041;27;45548;-77
2022/01/19 01:03:36;;;;;;;;;80.00;61.25;;;;;1.30;79.80;100823.44;5106868;27;45386;-77
2022/01/19 01:06:01;;;;;;;;;81.50;58.75;;;;;1.29;79.93;100816.50;5106165;27;45398;-77
2022/01/19 01:08:26;;;;;;;;;73.00;57.25;;;;;1.29;80.15;100823.41;5101540;27;45594;-76
2022/01/19 01:10:52;;;;;;;;;74.50;58.75;;;;;1.28;80.29;100825.13;5093258;27;46695;-76
2022/01/19 01:13:24;;;;;;;;;73.00;56.25;;;;;1.28;80.18;100839.81;5082622;27;45490;-77
2022/01/19 01:16:16;;;;;;;;;76.25;58.75;;;;;1.27;80.06;100838.94;5098432;27;45478;-77
2022/01/19 01:18:42;;;;;;;;;77.00;60.75;;;;;1.25;80.26;100842.34;5109046;27;45542;-77
2022/01/19 01:21:07;;;;;;;;;72.50;55.75;;;;;1.25;80.12;100851.00;5099287;27;46293;-76
2022/01/19 01:23:35;;;;;;;;;75.00;58.25;;;;;1.24;80.24;100853.56;5086263;27;45632;-77
2022/01/19 01:26:02;;;;;;;;;73.75;59.25;;;;;1.22;80.46;100853.53;5100775;27;45456;-77
2022/01/19 01:28:28;;;;;;;;;82.00;62.00;;;;;1.20;80.57;100855.22;5085993;27;45556;-76
2022/01/19 01:30:54;;;;;;;;;78.75;57.00;;;;;1.19;80.55;100857.75;5108768;27;45470;-76
2022/01/19 01:33:20;;;;;;;;;75.75;59.25;;;;;1.16;80.36;100849.91;5100567;27;45398;-76
2022/01/19 01:35:47;;;;;;;;;70.50;55.75;;;;;1.14;80.46;100849.88;5095539;27;45318;-76
2022/01/19 01:38:13;;;;;;;;;77.25;61.25;;;;;1.14;80.45;100843.81;5104164;27;45363;-77
2022/01/19 01:40:39;;;;;;;;;71.00;59.25;;;;;1.11;80.59;100838.53;5113842;27;46265;-77
2022/01/19 01:43:07;;;;;;;;;64.00;50.00;;;;;1.10;80.57;100842.84;5102884;27;45411;-77
2022/01/19 01:45:35;;;;;;;;;75.25;56.00;;;;;1.09;80.66;100835.00;5093732;27;45418;-77
2022/01/19 01:48:14;;;;;;;;;76.00;61.00;;;;;1.07;80.85;100828.88;5083093;27;45369;-77
2022/01/19 01:53:26;;;;;;;;;76.00;58.50;;;;;1.04;80.80;100827.09;5117388;27;45505;-77
2022/01/19 01:56:02;;;;;;;;;60.75;48.50;;;;;1.02;80.83;100832.25;5099244;27;45467;-76
2022/01/19 01:58:31;;;;;;;;;77.50;60.50;;;;;1.01;80.73;100827.00;5114428;27;45500;-77
2022/01/19 02:00:57;;;;;;;;;69.00;53.50;;;;;0.97;80.79;100820.88;5100816;27;46461;-77
2022/01/19 02:03:23;;;;;;;;;76.00;58.00;;;;;0.97;81.02;100822.59;5114172;27;45329;-77
2022/01/19 02:06:18;;;;;;;;;70.75;56.25;;;;;0.97;80.98;100820.00;5117192;27;45417;-77
2022/01/19 02:08:44;;;;;;;;;77.50;57.75;;;;;0.95;80.84;100822.56;5100562;27;45483;-77
2022/01/19 02:16:29;;;;;;;;;56.50;45.00;;;;;0.93;81.33;100813.84;5099645;27;45444;-77
2022/01/19 02:24:08;;;;;;;;;74.50;57.75;;;;;0.89;80.83;100813.72;5110373;27;45487;-77
2022/01/19 02:26:51;;;;;;;;;70.00;51.00;;;;;0.88;81.12;100806.75;5117716;27;45374;-76
2022/01/19 02:29:48;;;;;;;;;81.00;58.00;;;;;0.87;81.28;100805.88;5105647;27;45323;-77
2022/01/19 02:40:16;;;;;;;;;76.00;57.25;;;;;0.83;81.35;100796.28;5114645;27;45443;-77
2022/01/19 02:50:37;;;;;;;;;69.25;54.75;;;;;0.79;81.63;100797.03;5116810;27;45375;-77
2022/01/19 02:53:02;;;;;;;;;76.25;59.50;;;;;0.78;81.39;100792.69;5108991;27;45613;-77
2022/01/19 02:55:29;;;;;;;;;75.25;57.00;;;;;0.77;81.41;100796.13;5097655;27;45444;-77
2022/01/19 02:57:55;;;;;;;;;75.00;59.00;;;;;0.76;81.46;100794.34;5100161;27;45407;-77
2022/01/19 03:08:48;;;;;;;;;71.50;57.75;;;;;0.69;81.44;100789.84;5105084;27;45438;-76
2022/01/19 03:11:18;;;;;;;;;76.25;59.50;;;;;0.68;81.82;100793.25;5102375;27;45387;-77
2022/01/19 03:13:45;;;;;;;;;71.75;57.75;;;;;0.67;81.54;100800.16;5116740;27;45422;-76
2022/01/19 03:16:11;;;;;;;;;70.00;55.50;;;;;0.67;81.80;100797.56;5114294;27;45411;-77
2022/01/19 03:18:36;;;;;;;;;71.75;56.25;;;;;0.66;81.68;100795.84;5097093;27;45298;-77
2022/01/19 03:21:03;;;;;;;;;69.75;55.00;;;;;0.66;81.62;100794.97;5106367;27;45475;-76
2022/01/19 03:23:28;;;;;;;;;72.75;54.25;;;;;0.65;81.76;100795.81;5113691;27;45546;-77
2022/01/19 03:25:54;;;;;;;;;68.00;53.75;;;;;0.64;81.79;100797.53;5113473;27;45464;-76
2022/01/19 03:28:20;;;;;;;;;71.25;56.00;;;;;0.64;81.46;100791.44;5082118;27;45388;-76
2022/01/19 03:30:47;;;;;;;;;71.00;54.75;;;;;0.64;81.81;100788.84;5096189;27;45429;-76
2022/01/19 03:33:14;;;;;;;;;66.25;52.75;;;;;0.63;81.72;100789.69;5097638;27;47060;-76
2022/01/19 03:35:39;;;;;;;;;73.25;53.50;;;;;0.63;81.66;100793.16;5114242;27;45505;-76
2022/01/19 03:38:07;;;;;;;;;70.25;56.25;;;;;0.64;81.52;100796.63;5103383;27;45435;-76
2022/01/19 03:40:32;;;;;;;;;70.75;52.75;;;;;0.61;81.80;100791.38;5116115;27;45581;-77
2022/01/19 03:42:58;;;;;;;;;81.25;61.50;;;;;0.60;81.69;100784.41;5116010;27;45471;-76
2022/01/19 03:45:23;;;;;;;;;70.25;57.00;;;;;0.59;81.64;100787.84;5099700;27;45341;-76
2022/01/19 03:48:38;;;;;;;;;71.00;59.00;;;;;0.60;81.80;100789.59;5081399;27;45593;-76
2022/01/19 03:50:35;;;;;;;;;74.75;58.50;;;;;0.58;82.05;100783.50;5084588;27;45469;-76
2022/01/19 03:53:01;;;;;;;;;73.00;58.50;;;;;0.56;81.85;100777.38;5099844;27;46091;-76
2022/01/19 03:55:27;;;;;;;;;73.25;56.75;;;;;0.55;81.47;100778.22;5097052;27;45853;-76
2022/01/19 03:57:52;;;;;;;;;78.25;59.50;;;;;0.54;81.87;100776.44;5099195;27;45341;-77
2022/01/19 04:00:20;;;;;;;;;75.25;58.00;;;;;0.54;82.04;100779.94;5103556;27;45458;-77
2022/01/19 04:02:45;;;;;;;;;74.00;56.75;;;;;0.53;81.98;100777.28;5087919;27;46922;-76
2022/01/19 04:05:55;;;;;;;;;73.75;58.00;;;;;0.52;81.91;100770.34;5115307;27;45454;-77
2022/01/19 04:08:03;;;;;;;;;72.50;59.75;;;;;0.51;81.81;100769.47;5101239;27;45404;-77
2022/01/19 04:10:28;;;;;;;;;69.25;50.25;;;;;0.51;82.14;100769.47;5113446;27;45536;-76
2022/01/19 04:13:07;;;;;;;;;75.75;56.50;;;;;0.51;82.05;100769.47;5101508;27;45467;-77
2022/01/19 04:15:32;;;;;;;;;76.25;59.00;;;;;0.50;81.95;100769.44;5095486;27;45455;-77
2022/01/19 04:17:58;;;;;;;;;76.50;59.50;;;;;0.48;81.83;100764.22;5095168;27;45686;-76
2022/01/19 04:20:25;;;;;;;;;79.50;59.75;;;;;0.47;81.90;100762.47;5111497;27;45594;-77
2022/01/19 04:22:51;;;;;;;;;78.00;57.00;;;;;0.47;81.96;100766.78;5101322;27;45421;-77
2022/01/19 04:25:16;;;;;;;;;76.25;60.50;;;;;0.45;81.85;100763.25;5115361;27;45360;-77
2022/01/19 04:27:43;;;;;;;;;78.50;59.25;;;;;0.45;82.11;100758.94;5100454;27;45419;-77
2022/01/19 04:30:12;;;;;;;;;67.75;54.00;;;;;0.46;82.17;100755.50;5115774;27;45343;-76
2022/01/19 04:35:14;;;;;;;;;68.50;54.50;;;;;0.45;82.23;100750.28;5106431;27;45470;-77
2022/01/19 05:07:24;;;;;;;;;68.50;55.25;;;;;0.35;82.12;100729.25;5098150;27;45380;-77
2022/01/19 05:13:23;;;;;;;;;56.50;46.25;;;;;0.35;82.08;100723.19;5114261;27;45497;-77
2022/01/19 05:15:28;;;;;;;;;68.75;57.75;;;;;0.34;82.57;100724.91;5113519;27;45390;-77
2022/01/19 05:17:53;;;;;;;;;74.50;57.00;;;;;0.34;82.30;100721.44;5117837;27;45490;-76
2022/01/19 05:20:19;;;;;;;;;69.25;57.25;;;;;0.34;82.42;100721.44;5105261;27;45298;-76
2022/01/19 05:22:44;;;;;;;;;75.75;54.50;;;;;0.35;82.37;100718.00;5081634;27;45404;-76
2022/01/19 05:25:10;;;;;;;;;70.75;55.50;;;;;0.35;82.58;100715.41;5094194;27;47956;-77
2022/01/19 05:27:35;;;;;;;;;69.00;54.75;;;;;0.37;82.61;100715.47;5116154;27;45367;-76
2022/01/19 05:30:01;;;;;;;;;73.00;59.00;;;;;0.35;82.02;100713.69;5093736;27;45448;-76
2022/01/19 05:32:26;;;;;;;;;75.25;57.00;;;;;0.36;82.23;100717.19;5085804;27;45360;-76
2022/01/19 05:34:52;;;;;;;;;69.00;53.50;;;;;0.35;82.36;100711.09;5117325;27;46171;-76
2022/01/19 05:37:17;;;;;;;;;79.25;58.75;;;;;0.38;82.42;100712.03;5102003;27;45440;-76
2022/01/19 05:39:43;;;;;;;;;71.75;56.25;;;;;0.38;82.42;100706.84;5088551;27;45533;-77
2022/01/19 05:42:14;;;;;;;;;65.75;54.00;;;;;0.40;82.21;100706.06;5080906;27;45333;-77
2022/01/19 05:44:43;;;;;;;;;72.25;54.75;;;;;0.42;82.07;100706.97;5118018;27;45447;-76
2022/01/19 05:47:09;;;;;;;;;70.25;53.25;;;;;0.44;82.17;100707.00;5095680;27;45462;-76
2022/01/19 05:49:34;;;;;;;;;77.00;56.50;;;;;0.45;82.47;100695.81;5104919;27;45369;-77
2022/01/19 05:52:00;;;;;;;;;70.50;55.25;;;;;0.47;82.20;100704.50;5097254;27;45298;-76
2022/01/19 05:54:25;;;;;;;;;79.75;58.25;;;;;0.47;82.36;100695.00;5110367;27;45498;-76
2022/01/19 05:56:52;;;;;;;;;74.75;59.00;;;;;0.47;82.10;100699.31;5100899;27;45318;-77
2022/01/19 05:59:18;;;;;;;;;69.00;54.50;;;;;0.47;82.32;100701.91;5117991;27;45379;-77
2022/01/19 06:01:43;;;;;;;;;69.75;57.25;;;;;0.47;81.98;100699.31;5103463;27;45235;-77
2022/01/19 06:04:09;;;;;;;;;67.50;54.75;;;;;0.46;81.92;100702.75;5117440;27;45201;-77
2022/01/19 06:06:34;;;;;;;;;71.00;55.25;;;;;0.47;82.08;100704.50;5117634;27;45505;-76
2022/01/19 06:09:03;;;;;;;;;63.25;51.00;;;;;0.46;82.14;100703.63;5096124;27;45859;-76
2022/01/19 06:11:28;;;;;;;;;72.00;53.00;;;;;0.45;82.26;100703.59;5116881;27;45554;-76
2022/01/19 06:13:54;;;;;;;;;73.50;58.75;;;;;0.46;81.92;100705.34;5088759;27;48016;-76
2022/01/19 06:16:19;;;;;;;;;76.50;59.75;;;;;0.44;81.92;100704.41;5113470;27;45487;-77
2022/01/19 06:18:44;;;;;;;;;72.25;54.50;;;;;0.44;82.10;100707.00;5116738;27;45733;-77
2022/01/19 06:21:10;;;;;;;;;68.50;55.25;;;;;0.43;82.15;100700.94;5108251;27;45590;-77
2022/01/19 06:23:36;;;;;;;;;75.25;57.50;;;;;0.42;82.34;100700.91;5111304;27;45809;-76
2022/01/19 06:26:05;;;;;;;;;72.75;57.25;;;;;0.42;81.97;100712.16;5096029;27;45486;-76
2022/01/19 06:28:30;;;;;;;;;74.00;60.75;;;;;0.40;82.11;100703.47;5084993;27;45473;-76
2022/01/19 06:30:56;;;;;;;;;78.75;62.75;;;;;0.39;82.22;100706.00;5112856;27;45582;-76
2022/01/19 06:33:22;;;;;;;;;72.50;55.25;;;;;0.39;82.10;100700.81;5094706;27;46761;-76
2022/01/19 06:35:47;;;;;;;;;75.00;58.75;;;;;0.38;82.21;100699.94;5078983;27;45444;-78
2022/01/19 06:38:13;;;;;;;;;76.50;59.75;;;;;0.35;81.79;100698.13;5102372;27;45342;-78
2022/01/19 06:40:38;;;;;;;;;70.00;56.50;;;;;0.34;82.02;100698.09;5093814;27;45434;-76
2022/01/19 06:43:04;;;;;;;;;79.00;59.25;;;;;0.32;81.91;100698.09;5106123;27;45467;-76
2022/01/19 06:45:29;;;;;;;;;66.50;55.75;;;;;0.30;81.86;100697.16;5116294;27;45452;-76
2022/01/19 06:47:55;;;;;;;;;71.00;54.75;;;;;0.30;82.45;100697.16;5108937;27;45333;-77
2022/01/19 06:50:21;;;;;;;;;71.25;59.75;;;;;0.27;82.18;100691.91;5113099;27;45389;-76
2022/01/19 06:52:47;;;;;;;;;75.00;56.75;;;;;0.26;82.33;100694.44;5096848;27;47428;-77
2022/01/19 06:55:13;;;;;;;;;78.25;62.00;;;;;0.25;82.11;100685.78;5111758;27;45289;-76
2022/01/19 06:57:40;;;;;;;;;75.75;58.25;;;;;0.21;81.89;100689.13;5106077;27;45405;-76
2022/01/19 07:00:07;;;;;;;;;73.75;57.25;;;;;0.17;82.20;100695.06;5114020;27;45433;-77
2022/01/19 07:02:32;;;;;;;;;69.00;52.25;;;;;0.15;82.25;100696.75;5095913;27;46742;-77
2022/01/19 07:04:59;;;;;;;;;80.75;61.50;;;;;0.14;82.20;100694.13;5091457;27;45453;-76
2022/01/19 07:07:24;;;;;;;;;75.00;57.50;;;;;0.11;82.34;100692.31;5095520;27;45474;-77
2022/01/19 07:09:50;;;;;;;;;73.25;56.75;;;;;0.11;82.55;100700.09;5104025;27;45419;-77
2022/01/19 07:12:16;;;;;;;;;78.00;61.00;;;;;0.10;82.65;100700.94;5095059;27;45480;-77
2022/01/19 07:14:41;;;;;;;;;77.00;60.00;;;;;0.09;82.78;100701.78;5109803;27;45350;-76
2022/01/19 07:17:07;;;;;;;;;76.00;58.75;;;;;0.09;82.75;100706.94;5105679;27;45338;-77
2022/01/19 07:19:32;;;;;;;;;68.75;53.00;;;;;0.09;82.62;100709.53;5110939;27;45403;-77
2022/01/19 07:21:58;;;;;;;;;72.50;57.75;;;;;0.08;82.51;100705.19;5096478;27;46543;-77
2022/01/19 07:24:23;;;;;;;;;75.75;58.25;;;;;0.08;82.70;100700.00;5094973;27;45450;-76
2022/01/19 07:26:49;;;;;;;;;76.50;58.75;;;;;0.08;82.50;100700.00;5114386;27;45228;-77
2022/01/19 07:29:14;;;;;;;;;69.50;53.75;;;;;0.08;82.62;100701.72;5111853;27;45368;-77
2022/01/19 07:31:41;;;;;;;;;75.75;60.00;;;;;0.07;82.64;100702.56;5093248;27;45447;-77
2022/01/19 07:34:07;;;;;;;;;83.00;64.00;;;;;0.08;82.36;100699.13;5106271;27;45594;-76
2022/01/19 07:36:32;;;;;;;;;71.25;57.75;;;;;0.08;82.73;100700.00;5105915;27;45410;-77
2022/01/19 07:38:58;;;;;;;;;77.00;59.25;;;;;0.10;82.64;100706.13;5105569;27;45423;-76
2022/01/19 07:41:23;;;;;;;;;69.75;55.50;;;;;0.14;82.63;100705.38;5105721;27;45396;-76
2022/01/19 07:43:49;;;;;;;;;72.75;58.75;;;;;0.15;82.73;100704.53;5105116;27;45553;-77
2022/01/19 07:46:16;;;;;;;;;70.00;58.75;;;;;0.17;82.71;100707.19;5087210;27;45606;-77
2022/01/19 07:48:42;;;;;;;;;71.75;58.00;;;;;0.20;82.33;100704.63;5111006;27;45574;-77
2022/01/19 07:51:07;;;;;;;;;78.25;61.25;;;;;0.23;82.69;100718.56;5105015;27;45630;-77
2022/01/19 07:53:33;;;;;;;;;67.50;54.75;;;;;0.26;82.69;100710.88;5108776;27;45348;-77
2022/01/19 07:55:58;;;;;;;;;72.00;58.75;;;;;0.29;82.38;100710.97;5115097;27;45301;-76
2022/01/19 07:58:24;;;;;;;;;78.50;62.25;;;;;0.31;82.52;100709.28;5106535;27;45432;-77
2022/01/19 08:00:49;;;;;;;;;72.75;59.25;;;;;0.35;82.39;100710.22;5105713;27;45939;-77
2022/01/19 08:03:15;;;;;;;;;73.50;59.00;;;;;0.39;82.45;100712.06;5100355;27;45454;-77
2022/01/19 08:05:40;;;;;;;;;78.00;57.75;;;;;0.42;81.96;100709.56;5097181;27;45402;-77
2022/01/19 08:08:06;;;;;;;;;61.00;50.50;;;;;0.48;81.96;100708.84;5101574;27;45463;-77
2022/01/19 08:10:32;;;;;;;;;79.75;59.75;;;;;0.50;82.10;100713.25;5115603;27;46362;-77
2022/01/19 08:13:02;;;;;;;;;66.50;53.50;;;;;0.53;81.80;100713.31;5118410;27;45443;-77
2022/01/19 08:15:28;;;;;;;;;72.00;58.75;;;;;0.57;81.69;100707.38;5108856;27;45395;-77
2022/01/19 08:17:53;;;;;;;;;77.25;58.00;;;;;0.59;81.44;100713.47;5082725;27;45401;-77
2022/01/19 08:20:19;;;;;;;;;72.00;56.50;;;;;0.61;81.55;100714.41;5118762;27;45851;-77
2022/01/19 08:22:45;;;;;;;;;77.25;60.00;;;;;0.64;81.61;100711.00;5119069;27;45517;-77
2022/01/19 08:25:10;;;;;;;;;63.25;51.00;;;;;0.65;81.76;100715.34;5112970;27;45449;-77
2022/01/19 08:27:36;;;;;;;;;69.75;55.00;;;;;0.67;81.15;100716.28;5107258;27;45459;-77
2022/01/19 08:30:04;;;;;;;;;77.75;61.75;;;;;0.71;81.26;100718.09;5108122;27;45464;-77
2022/01/19 08:32:30;;;;;;;;;70.00;55.00;;;;;0.76;80.96;100713.03;5118882;27;45329;-76
2022/01/19 08:34:55;;;;;;;;;82.50;61.75;;;;;0.81;81.66;100721.81;5089690;27;45321;-77
2022/01/19 08:37:21;;;;;;;;;79.00;62.00;;;;;0.86;81.14;100717.59;5082515;27;45463;-77
2022/01/19 08:39:46;;;;;;;;;85.00;64.00;;;;;0.88;81.13;100710.72;5090320;27;45396;-77
2022/01/19 08:42:12;;;;;;;;;76.00;58.00;;;;;0.94;80.94;100719.53;5102045;27;45337;-77
2022/01/19 08:44:38;;;;;;;;;78.50;59.25;;;;;0.99;80.71;100727.44;5098495;27;45448;-77
2022/01/19 08:47:05;;;;;;;;;74.50;58.50;;;;;0.99;80.64;100717.94;5118193;27;45507;-77
2022/01/19 08:49:31;;;;;;;;;79.75;61.25;;;;;1.01;80.51;100730.94;5117521;27;45432;-77
2022/01/19 08:51:57;;;;;;;;;79.75;61.50;;;;;1.05;80.57;100728.44;5104105;27;45427;-77
2022/01/19 08:54:23;;;;;;;;;78.00;60.50;;;;;1.11;80.45;100729.44;5114039;27;45423;-77
2022/01/19 08:56:48;;;;;;;;;78.75;60.25;;;;;1.16;80.27;100727.84;5083206;27;45459;-78
2022/01/19 08:59:14;;;;;;;;;78.50;60.50;;;;;1.20;80.43;100732.25;5111627;27;46247;-77
2022/01/19 09:01:40;;;;;;;;;72.50;57.75;;;;;1.26;80.01;100722.88;5085621;27;45341;-77
2022/01/19 09:04:05;;;;;;;;;78.75;60.50;;;;;1.31;80.09;100733.41;5117815;27;45374;-77
2022/01/19 09:06:31;;;;;;;;;82.25;63.50;;;;;1.37;79.92;100726.59;5103928;27;45451;-77
2022/01/19 09:08:56;;;;;;;;;77.50;63.25;;;;;1.42;80.01;100734.50;5117011;27;45436;-77
2022/01/19 09:11:22;;;;;;;;;78.50;62.25;;;;;1.48;79.79;100736.38;5115143;27;45313;-77
2022/01/19 09:13:49;;;;;;;;;79.25;63.25;;;;;1.54;79.90;100732.16;5107455;27;45563;-77
2022/01/19 09:16:15;;;;;;;;;83.75;63.00;;;;;1.58;79.61;100726.19;5115225;27;45566;-77
2022/01/19 09:18:40;;;;;;;;;77.50;60.25;;;;;1.63;79.38;100726.31;5106861;27;45398;-77
2022/01/19 09:21:06;;;;;;;;;74.00;57.75;;;;;1.70;79.28;100743.78;5098951;27;45366;-77
2022/01/19 09:23:31;;;;;;;;;83.50;63.00;;;;;1.77;78.99;100742.19;5097887;27;45691;-77
2022/01/19 09:25:57;;;;;;;;;81.50;60.50;;;;;1.83;78.86;100732.81;5099166;27;45667;-77
2022/01/19 09:28:22;;;;;;;;;72.00;57.00;;;;;1.88;78.77;100731.16;5117689;27;46560;-77
2022/01/19 09:30:49;;;;;;;;;75.00;58.75;;;;;1.95;78.65;100737.38;5101498;27;45473;-77
2022/01/19 09:33:22;;;;;;;;;75.75;59.50;;;;;2.00;78.53;100731.44;5102486;27;45275;-77
2022/01/19 09:36:04;;;;;;;;;79.75;61.00;;;;;2.06;78.13;100730.66;5100134;27;45447;-77
2022/01/19 09:38:34;;;;;;;;;78.25;58.50;;;;;2.11;78.32;100729.03;5109518;27;46353;-77
2022/01/19 09:41:00;;;;;;;;;73.00;54.75;;;;;2.16;77.68;100731.75;5116710;27;45497;-76
2022/01/19 09:43:26;;;;;;;;;75.50;57.25;;;;;2.20;78.17;100734.41;5117362;27;45309;-77
2022/01/19 09:45:54;;;;;;;;;70.25;55.75;;;;;2.26;77.90;100731.06;5099031;27;45432;-77
2022/01/19 09:48:19;;;;;;;;;68.25;53.00;;;;;2.31;77.71;100735.50;5097866;27;47223;-76
2022/01/19 09:50:45;;;;;;;;;71.75;57.00;;;;;2.38;77.71;100742.56;5111064;27;45431;-77
2022/01/19 09:53:11;;;;;;;;;68.75;55.25;;;;;2.43;77.34;100743.53;5090916;27;45450;-76
2022/01/19 09:55:38;;;;;;;;;75.25;59.25;;;;;2.49;77.27;100740.19;5115334;27;45482;-76
2022/01/19 09:58:05;;;;;;;;;67.50;55.00;;;;;2.55;77.14;100734.19;5089328;27;47043;-77
2022/01/19 10:00:30;;;;;;;;;69.50;56.50;;;;;2.59;76.84;100731.69;5117650;27;45223;-77
2022/01/19 10:03:12;;;;;;;;;69.50;57.00;;;;;2.64;76.41;100729.16;5114380;27;45166;-77
2022/01/19 10:05:52;;;;;;;;;72.25;54.00;;;;;2.69;75.88;100728.38;5096772;27;45476;-77
2022/01/19 10:08:31;;;;;;;;;70.00;52.50;;;;;2.71;76.13;100718.88;5092778;27;46886;-77
2022/01/19 10:17:08;;;;;;;;;76.00;58.25;;;;;2.89;76.05;100710.47;5066480;27;45548;-77
2022/01/19 10:19:42;;;;;;;;;76.75;58.75;;;;;2.95;75.92;100712.31;5086428;27;46673;-78
2022/01/19 10:22:27;;;;;;;;;72.75;56.00;;;;;3.03;75.80;100710.69;5108029;27;45417;-77
2022/01/19 10:24:56;;;;;;;;;73.50;55.25;;;;;3.09;75.51;100696.06;5116400;27;45528;-77
2022/01/19 10:27:37;;;;;;;;;69.50;56.00;;;;;3.14;75.27;100699.63;5117253;27;45313;-77
2022/01/19 10:30:02;;;;;;;;;67.75;52.25;;;;;3.20;75.57;100693.59;5095786;27;45449;-77
2022/01/19 10:32:30;;;;;;;;;72.25;56.50;;;;;3.25;75.21;100691.94;5099991;27;45609;-77
2022/01/19 10:34:55;;;;;;;;;69.75;55.50;;;;;3.32;75.15;100687.72;5086976;27;45403;-77
2022/01/19 10:37:26;;;;;;;;;67.25;52.75;;;;;3.39;74.82;100689.53;5113294;27;45608;-78
2022/01/19 10:39:57;;;;;;;;;66.00;53.00;;;;;3.45;74.62;100684.41;5096261;27;46847;-77
2022/01/19 10:42:25;;;;;;;;;64.75;52.00;;;;;3.52;74.65;100683.63;5111831;27;45417;-77
2022/01/19 10:45:04;;;;;;;;;73.25;55.50;;;;;3.58;74.36;100670.69;5114268;27;45733;-78
2022/01/19 10:47:45;;;;;;;;;67.00;52.25;;;;;3.65;74.04;100672.50;5090591;27;45564;-77
2022/01/19 10:50:14;;;;;;;;;72.25;54.75;;;;;3.73;73.96;100662.16;5115360;27;45456;-77
2022/01/19 10:52:44;;;;;;;;;69.25;54.50;;;;;3.78;74.05;100660.50;5106451;27;45326;-77
2022/01/19 10:55:19;;;;;;;;;61.50;49.25;;;;;3.84;73.83;100655.38;5093102;27;45549;-77
2022/01/19 10:57:44;;;;;;;;;69.50;55.00;;;;;3.91;73.66;100656.28;5115411;27;45210;-77
2022/01/19 11:00:24;;;;;;;;;67.67;54.33;;;;;3.98;73.62;100645.94;5115800;27;46158;-77
2022/01/19 11:02:52;;;;;;;;;70.25;53.25;;;;;4.04;73.19;100639.91;5096788;27;45360;-77
2022/01/19 11:05:42;;;;;;;;;62.75;50.25;;;;;4.07;72.97;100642.56;5100443;27;45388;-77
2022/01/19 11:08:08;;;;;;;;;70.00;55.50;;;;;4.10;73.22;100634.75;5100899;27;45463;-77
2022/01/19 11:10:34;;;;;;;;;70.75;53.00;;;;;4.16;72.84;100622.66;5086460;27;48050;-77
2022/01/19 11:13:00;;;;;;;;;67.50;53.25;;;;;4.22;72.79;100621.81;5115054;27;45504;-78
2022/01/19 11:15:26;;;;;;;;;69.00;53.50;;;;;4.31;72.92;100618.44;5113869;27;45403;-77
2022/01/19 11:17:52;;;;;;;;;68.50;53.75;;;;;4.37;72.16;100613.25;5114648;27;45599;-78
2022/01/19 11:20:23;;;;;;;;;71.50;52.25;;;;;4.43;71.97;100608.09;5115528;27;46726;-77
2022/01/19 11:23:22;;;;;;;;;67.75;54.25;;;;;4.46;71.60;100602.91;5099529;27;45447;-78
2022/01/19 11:25:57;;;;;;;;;63.67;51.67;;;;;4.53;71.04;100596.84;5070171;27;45473;-77
2022/01/19 11:28:27;;;;;;;;;67.33;52.67;;;;;4.59;71.39;100585.59;5101615;27;45541;-77
2022/01/19 11:30:53;;;;;;;;;68.00;53.67;;;;;4.66;71.11;100570.00;5111310;27;45492;-77
2022/01/19 11:33:25;;;;;;;;;68.25;54.25;;;;;4.73;71.46;100557.81;5087060;27;45448;-77
2022/01/19 11:36:39;;;;;;;;;64.00;52.33;;;;;4.78;71.53;100566.56;5115476;27;45479;-78
2022/01/19 11:39:12;;;;;;;;;70.00;53.67;;;;;4.89;71.27;100557.06;5114260;27;45462;-78
2022/01/19 11:41:40;;;;;;;;;64.00;50.33;;;;;4.96;70.78;100550.13;5114992;27;45364;-77
2022/01/19 11:44:18;;;;;;;;;64.67;53.00;;;;;5.01;70.45;100543.19;5106084;27;45354;-77
2022/01/19 11:46:49;;;;;;;;;62.67;51.00;;;;;5.10;70.43;100535.38;5112278;27;45421;-77
2022/01/19 11:49:36;;;;;;;;;67.00;52.00;;;;;5.15;69.78;100528.44;5108822;27;45408;-77
2022/01/19 11:52:03;;;;;;;;;69.33;52.67;;;;;5.21;69.61;100531.06;5096542;27;45517;-77
2022/01/19 11:54:31;;;;;;;;;64.33;48.00;;;;;5.29;69.36;100533.72;5109569;27;45400;-78
2022/01/19 11:56:59;;;;;;;;;59.00;48.00;;;;;5.34;69.08;100530.28;5081620;27;45489;-77
2022/01/19 11:59:30;;;;;;;;;60.33;49.67;;;;;5.38;69.15;100518.94;5114862;27;45381;-77
2022/01/19 12:02:20;;;;;;;;;65.33;50.00;;;;;5.45;68.85;100512.88;5114608;27;46434;-77
2022/01/19 12:04:52;;;;;;;;;64.00;50.00;;;;;5.50;68.29;100505.91;5114665;27;45493;-77
2022/01/19 12:07:36;;;;;;;;;62.33;48.00;;;;;5.56;68.19;100503.28;5087444;27;45420;-77
2022/01/19 12:10:08;;;;;;;;;67.00;53.00;;;;;5.60;68.20;100489.34;5114769;27;45344;-77
2022/01/19 12:12:40;;;;;;;;;61.00;49.00;;;;;5.65;67.47;100480.66;5097288;27;46292;-76
2022/01/19 12:15:08;;;;;;;;;61.33;47.00;;;;;5.69;67.28;100477.19;5089459;27;45383;-77
2022/01/19 12:18:00;;;;;;;;;61.67;48.00;;;;;5.73;67.50;100478.91;5094713;27;45336;-77
2022/01/19 12:20:49;;;;;;;;;66.00;52.00;;;;;5.75;67.42;100480.66;5086670;27;45554;-76
2022/01/19 12:23:28;;;;;;;;;63.00;47.33;;;;;5.76;67.88;100471.94;5098238;27;45935;-76
2022/01/19 12:25:59;;;;;;;;;59.67;49.33;;;;;5.79;67.48;100456.25;5095942;27;45527;-77
2022/01/19 12:28:51;;;;;;;;;60.33;48.00;;;;;5.84;66.46;100451.91;5089828;27;45405;-77
2022/01/19 12:31:26;;;;;;;;;58.33;47.00;;;;;5.86;66.32;100439.69;5093852;27;45451;-76
2022/01/19 12:34:21;;;;;;;;;59.33;49.33;;;;;5.92;68.18;100436.22;5091992;27;46386;-76
2022/01/19 12:36:58;;;;;;;;;62.67;48.67;;;;;5.94;66.57;100424.88;5092285;27;45580;-76
2022/01/19 12:39:26;;;;;;;;;57.00;46.67;;;;;5.98;65.61;100411.78;5080052;27;45443;-78
2022/01/19 12:42:02;;;;;;;;;61.00;47.33;;;;;6.02;65.36;100416.16;5079733;27;46176;-77